x

Central Caribbean - 210 Nm Sse Of Kingston, Jamaica (42058) Wave Buoy

3:50 - Sun 21st Sep 2014 All times are EST. -5 hours from GMT.

  • Sig Wave height 4.3ft
  • Swell Direction
  • Peak Period 7s
  • Average Period 5s
  • Wind
    13mph, 16mph gusts
  • Sea Temp 83°f
  • Air Temp 83°f
  • Sea Pressure 1011.2mb
  • Central Caribbean - 210 Nm Sse Of Kingston, Jamaica
  • Central Caribbean - 210 Nm Sse Of Kingston, Jamaica

More Historic Weather Station data

Upgrade to MSW Pro to gain access to the past 30 days of data for over 8000 Wavebouys and Weather Stations around the globe.

Join Pro

Comparision Forecast

View Surf forecast
   
dim. 09/21 3:50 4.5ft 7s 5s 13 16 mph 1011.2mb 83f 83f
2:50 4ft 7s 5s 13 16 mph 1011.5mb 83f 83f
1:50 4ft 7s 5s 13 16 mph 1012.2mb 83f 83f
12:50 4ft 7s 5s 11 13 mph 1013.1mb 83f 83f
11:50 4.5ft 7s 5s 13 16 mph 1013.6mb 83f 83f
10:50 4ft 6s 5s 13 16 mph 1014.4mb 83f 83f
9:50 4.5ft 7s 5s 13 18 mph 1014.4mb 83f 83f
8:50 4ft 7s 5s 16 18 mph 1014mb 82f 83f
7:50 4ft 6s 5s 13 18 mph 1013.4mb 82f 83f
6:50 4.5ft 7s 5s 13 16 mph 1013.1mb 82f 82f
5:50 4ft 6s 5s 13 16 mph 1012.3mb 82f 82f
4:50 4ft 7s 5s 11 16 mph 1011.9mb 82f 82f
3:50 3.5ft 7s 5s 16 18 mph 1011.3mb 82f 83f
2:50 4ft 7s 5s 13 18 mph 1010.8mb 82f 83f
1:50 4ft 7s 5s 16 18 mph 1011.2mb 82f 82f
12:50 4ft 7s 5s 13 16 mph 1012.1mb 83f 83f
sam. 09/20 11:50 4ft 6s 5s 16 18 mph 1012.6mb 83f 83f
10:50 4.5ft 7s 5s 13 16 mph 1013.1mb 83f 83f
9:50 5ft 6s 5s 13 16 mph 1013.2mb 83f 83f
8:50 4.5ft 6s 5s 16 18 mph 1012.8mb 83f 83f
7:50 4.5ft 6s 5s 13 16 mph 1011.9mb 83f 83f
6:50 4.5ft 6s 5s 16 18 mph 1010.9mb 83f 83f
5:50 4ft 6s 5s 16 18 mph 1010.2mb 83f 84f
4:50 3.5ft 6s 5s 13 16 mph 1010mb 83f 84f
3:50 3.5ft 6s 5s 16 18 mph 1010mb 83f 84f
2:50 3.5ft 6s 5s 13 16 mph 1010.3mb 83f 84f
1:50 3.5ft 6s 5s 11 13 mph 1010.5mb 83f 83f
12:50 3.5ft 6s 4s 13 16 mph 1011.1mb 83f 83f
11:50 3.5ft 6s 4s 16 18 mph 1011.8mb 83f 83f
10:50 3.5ft 6s 4s 13 18 mph 1012.1mb 83f 83f
9:50 3.5ft 5s 4s 13 16 mph 1012.3mb 83f 83f
8:50 3.5ft 5s 4s 16 18 mph 1012.8mb 83f 83f
7:50 3.5ft 5s 4s 13 16 mph 1012.5mb 83f 83f
6:50 3ft 6s 4s 11 13 mph 1011.9mb 83f 83f
5:50 3ft 6s 4s 13 16 mph 1011.3mb 83f 83f
4:50 3ft 5s 4s 13
mph
1010.9mb 83f 83f
3:50 3ft 6s 4s 11 16 mph 1010.5mb 83f 82f
2:50 3ft 6s 4s 16 22 mph 1010.2mb 83f 83f
1:50 3ft 5s 4s 16 18 mph 1011.2mb 83f 83f
12:50 2.5ft 5s 4s 16 18 mph 1011.7mb 83f 83f
ven. 09/19 11:50 3ft 6s 4s 13 16 mph 1012.1mb 83f 83f
10:50 3ft 6s 4s 13 16 mph 1012.6mb 83f 83f
9:50 3ft 6s 4s 13 16 mph 1013mb 83f 83f
8:50 3.5ft 5s 4s 11 16 mph 1012.5mb 83f 83f
7:50 3ft 5s 4s 13 16 mph 1011.5mb 83f 83f
6:50 3.5ft 6s 5s 13 16 mph 1010.8mb 83f 83f
5:50 3ft 6s 4s 13 16 mph 1010.2mb 83f 83f
4:50 3ft 5s 4s 11 13 mph 1010.3mb 83f 83f
3:50 3ft 6s 4s 11 13 mph 1010.5mb 83f 83f
2:50 3ft 6s 4s 13 16 mph 1010.8mb 83f 83f
1:50 2.5ft 6s 4s 13 18 mph 1011.3mb 83f 83f
12:50 2.5ft 5s 4s 13 16 mph 1012.2mb 83f 83f
11:50 3ft 6s 4s 11
mph
1012.8mb 83f 83f
10:50 3ft 6s 4s 13 16 mph 1013.3mb 83f 82f
9:50 3.5ft 5s 5s 13 16 mph 1013.3mb 83f 83f
8:50 3.5ft 5s 4s 13 16 mph 1013.1mb 83f 83f
7:50 3ft 5s 4s 13 16 mph 1012.7mb 83f 83f
6:50 3ft 5s 4s 13 16 mph 1012.4mb 83f 83f
5:50 3ft 5s 5s 13 16 mph 1011.8mb 83f 83f
4:50 3ft 6s 4s 13 16 mph 1011.2mb 83f 82f
3:50 3ft 6s 4s 13 16 mph 1010.8mb 83f 83f
2:50 2.5ft 6s 4s 13 16 mph 1010.9mb 83f 82f
1:50 2.5ft 6s 4s 13 16 mph 1011.4mb 83f 83f
12:50 2.5ft 5s 4s 13 16 mph 1011.9mb 83f 83f
jeu. 09/18 11:50 3ft 5s 4s 13 16 mph 1012.6mb 83f 83f
10:50 3ft 5s 4s 13 16 mph 1012.9mb 83f 83f
9:50 3.5ft 5s 4s 16 18 mph 1012.9mb 83f 83f
8:50 3ft 6s 5s 13 16 mph 1012.7mb 83f 83f
7:50 3ft 6s 5s 11 13 mph 1012.5mb 84f 83f
6:50 3.5ft 5s 5s 11 13 mph 1011.2mb 84f 83f
5:50 3ft 5s 5s 11 13 mph 1010.9mb 84f 82f
4:50 3.5ft 6s 5s 11 16 mph 1010.5mb 84f 83f
3:50 3ft 11s 5s 9 11 mph 1010.8mb 84f 83f
2:50 2.5ft 5s 5s 18 22 mph 1011.3mb 84f 82f
1:50 3ft 5s 5s 9 11 mph 1012mb 84f 83f
12:50 3ft 6s 5s 11 13 mph 1012.4mb 84f 83f
11:50 3ft 5s 4s 9
mph
1013.2mb 84f 83f
10:50 3ft 5s 4s 9 11 mph 1013.9mb 84f 83f
9:50 3ft 6s 4s 13 16 mph 1013.7mb 83f 83f
8:50 3.5ft 6s 4s 13 16 mph 1013.5mb 83f 83f
7:50 3.5ft 5s 4s 16 18 mph 1013.2mb 83f 83f
6:50 3ft 5s 4s 18 20 mph 1012.3mb 83f 83f
5:50 3ft 5s 4s 16 20 mph 1011.6mb 83f 83f
4:50 2.5ft 6s 4s 16 18 mph 1011.2mb 83f 83f
3:50 2.5ft 5s 4s 13 16 mph 1011.2mb 83f 83f
2:50 2.5ft 5s 5s 13 16 mph 1011.3mb 83f 82f
1:50 2.5ft 6s 5s 13
mph
1012mb 83f 83f
12:50 2.5ft 6s 4s 13 16 mph 1012.8mb 83f 82f
mer. 09/17 11:50 2.5ft 6s 4s 11 16 mph 1013.2mb 83f 83f
10:50 2.5ft 6s 5s 11 13 mph 1013.9mb 83f 83f
9:50 2.5ft 6s 5s 11 13 mph 1013.9mb 83f 83f